Time;durP1;ratioP1;P1;durP2;ratioP2;P2;SDS_P1;SDS_P2;PMS_P1;PMS_P2;Temp;Humidity;BMP_temperature;BMP_pressure;BME280_temperature;BME280_humidity;BME280_pressure;Samples;Min_cycle;Max_cycle;Signal;HPM_P1;HPM_P2
2022/04/20 00:01:42;;;;;;;8.57;4.72;;;;;;;9.87;70.15;101589.84;5092574;28;20399;-51
2022/04/20 00:04:11;;;;;;;10.00;5.10;;;;;;;9.84;70.25;101584.72;5089757;28;20469;-51
2022/04/20 00:06:39;;;;;;;9.85;4.63;;;;;;;9.82;69.75;101592.69;5094179;28;20428;-53
2022/04/20 00:09:09;;;;;;;10.15;5.22;;;;;;;9.79;70.26;101592.00;5091497;28;20055;-53
2022/04/20 00:11:37;;;;;;;10.82;4.95;;;;;;;9.71;70.52;101589.75;5092821;28;20079;-51
2022/04/20 00:14:05;;;;;;;8.68;4.88;;;;;;;9.71;70.28;101588.91;5094872;28;20105;-52
2022/04/20 00:16:33;;;;;;;9.73;5.45;;;;;;;9.64;70.99;101586.56;5094771;28;20040;-53
2022/04/20 00:19:02;;;;;;;9.75;5.00;;;;;;;9.56;71.01;101591.34;5095005;28;20522;-50
2022/04/20 00:21:30;;;;;;;11.52;5.20;;;;;;;9.51;71.20;101589.88;5094067;28;20381;-52
2022/04/20 00:23:58;;;;;;;10.32;4.45;;;;;;;9.61;71.07;101592.00;5090578;28;20068;-51
2022/04/20 00:26:27;;;;;;;12.25;5.32;;;;;;;9.48;71.20;101588.25;5092492;28;20127;-51
2022/04/20 00:28:55;;;;;;;9.73;5.13;;;;;;;9.51;70.97;101597.75;5092684;28;20044;-53
2022/04/20 00:31:23;;;;;;;13.45;5.20;;;;;;;9.51;71.47;101593.34;5094187;28;20055;-52
2022/04/20 00:33:52;;;;;;;9.00;5.00;;;;;;;9.46;71.60;101597.97;5094412;28;20036;-51
2022/04/20 00:36:20;;;;;;;9.45;4.72;;;;;;;9.45;71.74;101601.53;5093018;28;20126;-54
2022/04/20 00:38:48;;;;;;;8.15;4.38;;;;;;;9.37;71.89;101593.19;5088870;28;20052;-52
2022/04/20 00:41:16;;;;;;;11.30;5.15;;;;;;;9.41;71.22;101597.38;5091507;28;20052;-53
2022/04/20 00:43:46;;;;;;;9.55;5.13;;;;;;;9.32;71.31;101597.78;5094356;28;20101;-50
2022/04/20 00:46:17;;;;;;;10.45;4.32;;;;;;;9.34;71.28;101599.44;5094164;28;20440;-53
2022/04/20 00:48:45;;;;;;;8.95;4.63;;;;;;;9.34;71.12;101602.06;5093227;28;20052;-51
2022/04/20 00:51:13;;;;;;;9.57;4.32;;;;;;;9.36;70.85;101601.97;5091101;28;20082;-51
2022/04/20 00:53:41;;;;;;;8.35;4.80;;;;;;;9.34;70.95;101609.06;5090403;28;20044;-53
2022/04/20 00:56:09;;;;;;;12.23;4.68;;;;;;;9.26;70.75;101596.31;5092959;28;20040;-50
2022/04/20 00:58:41;;;;;;;8.60;4.38;;;;;;;9.24;70.54;101606.03;5091992;28;20079;-51
2022/04/20 01:01:10;;;;;;;11.05;4.63;;;;;;;9.12;71.32;101603.06;5094013;28;20134;-52
2022/04/20 01:03:38;;;;;;;9.32;4.90;;;;;;;9.13;71.30;101603.91;5094018;28;20131;-48
2022/04/20 01:06:08;;;;;;;9.68;4.38;;;;;;;9.10;70.85;101604.91;5093703;28;20050;-51
2022/04/20 01:08:36;;;;;;;11.60;5.30;;;;;;;9.08;71.29;101603.25;5090534;28;20044;-50
2022/04/20 01:11:05;;;;;;;8.20;4.40;;;;;;;9.07;71.79;101604.22;5090299;28;20055;-53
2022/04/20 01:13:33;;;;;;;10.00;4.82;;;;;;;8.99;72.25;101606.34;5093861;28;20126;-50
2022/04/20 01:16:01;;;;;;;8.43;4.90;;;;;;;9.01;71.98;101605.31;5093756;28;20054;-55
2022/04/20 01:18:31;;;;;;;11.63;4.78;;;;;;;9.01;72.20;101601.84;5093717;28;20105;-50
2022/04/20 01:21:01;;;;;;;10.70;4.43;;;;;;;9.02;72.15;101608.81;5093671;28;20079;-49
2022/04/20 01:23:30;;;;;;;7.28;3.80;;;;;;;9.00;71.78;101613.25;5092125;28;20044;-50
2022/04/20 01:25:58;;;;;;;12.45;5.05;;;;;;;8.89;71.95;101598.88;5089046;28;20036;-52
2022/04/20 01:28:26;;;;;;;8.70;4.40;;;;;;;8.87;71.98;101605.13;5090358;28;20058;-52
2022/04/20 01:30:54;;;;;;;8.35;4.15;;;;;;;8.86;71.92;101606.91;5093333;28;20101;-51
2022/04/20 01:33:22;;;;;;;8.35;4.07;;;;;;;8.85;71.79;101610.44;5093384;28;20376;-52
2022/04/20 01:35:50;;;;;;;7.78;3.85;;;;;;;8.86;71.44;101608.66;5092619;28;20044;-52
2022/04/20 01:38:20;;;;;;;10.75;4.15;;;;;;;8.88;71.46;101610.28;5088283;28;20503;-51
2022/04/20 01:40:48;;;;;;;10.68;3.95;;;;;;;8.81;71.60;101614.13;5089721;28;20483;-47
2022/04/20 01:43:16;;;;;;;8.02;4.03;;;;;;;8.67;71.48;101609.50;5093044;28;20072;-50
2022/04/20 01:45:44;;;;;;;7.70;3.75;;;;;;;8.71;71.45;101616.31;5090809;28;20054;-48
2022/04/20 01:48:12;;;;;;;9.98;4.15;;;;;;;8.69;71.47;101615.53;5089198;28;20055;-53
2022/04/20 01:53:24;;;;;;;9.43;3.87;;;;;;;8.55;71.47;101615.28;5091249;28;20059;-51
2022/04/20 01:55:52;;;;;;;7.85;3.92;;;;;;;8.52;71.31;101621.53;5088788;28;20078;-52
2022/04/20 01:58:20;;;;;;;8.38;4.10;;;;;;;8.44;71.57;101624.44;5089633;28;20135;-53
2022/04/20 02:00:49;;;;;;;8.32;4.00;;;;;;;8.48;71.90;101619.09;5089341;28;20043;-52
2022/04/20 02:03:16;;;;;;;10.68;4.07;;;;;;;8.36;72.53;101623.09;5089192;28;20077;-51
2022/04/20 02:05:44;;;;;;;8.55;3.70;;;;;;;8.38;72.16;101626.50;5092744;28;20074;-53
2022/04/20 02:08:12;;;;;;;6.22;3.58;;;;;;;8.41;71.77;101618.47;5092565;28;20067;-57
2022/04/20 02:10:42;;;;;;;7.88;3.67;;;;;;;8.34;71.55;101614.44;5091348;28;20056;-57
2022/04/20 02:13:10;;;;;;;9.55;4.30;;;;;;;8.34;71.80;101617.88;5089505;28;20177;-56
2022/04/20 02:15:38;;;;;;;7.75;3.53;;;;;;;8.34;71.54;101612.66;5088795;28;20059;-58
2022/04/20 02:18:06;;;;;;;9.73;4.00;;;;;;;8.23;71.99;101620.13;5092451;28;20097;-57
2022/04/20 02:20:35;;;;;;;11.48;3.80;;;;;;;8.25;71.17;101615.69;5092442;28;20360;-56
2022/04/20 02:23:03;;;;;;;7.80;3.50;;;;;;;8.29;70.88;101607.63;5092016;28;20052;-56
2022/04/20 02:25:31;;;;;;;9.13;3.67;;;;;;;8.25;71.12;101608.66;5092107;28;20048;-57
2022/04/20 02:28:01;;;;;;;7.45;3.60;;;;;;;8.19;71.23;101606.31;5091789;28;20036;-58
2022/04/20 02:30:29;;;;;;;6.97;3.53;;;;;;;8.16;71.15;101609.06;5091803;28;20670;-57
2022/04/20 02:32:57;;;;;;;7.30;3.30;;;;;;;8.17;71.31;101612.56;5091830;28;20040;-57
2022/04/20 02:35:27;;;;;;;7.35;3.58;;;;;;;8.18;71.19;101609.88;5092323;28;20070;-57
2022/04/20 02:37:55;;;;;;;9.30;3.33;;;;;;;8.19;70.80;101619.41;5091761;28;20048;-57
2022/04/20 02:40:23;;;;;;;7.47;3.65;;;;;;;8.23;70.40;101614.88;5091979;28;20151;-57
2022/04/20 02:42:51;;;;;;;9.60;3.95;;;;;;;8.13;71.47;101611.81;5085948;28;20105;-57
2022/04/20 02:45:21;;;;;;;6.10;3.17;;;;;;;8.09;71.12;101618.94;5089227;28;20426;-58
2022/04/20 02:47:50;;;;;;;9.07;4.00;;;;;;;8.08;71.46;101619.00;5090980;28;20044;-56
2022/04/20 02:50:18;;;;;;;10.07;4.32;;;;;;;8.04;71.86;101620.91;5091760;28;20434;-57
2022/04/20 02:52:46;;;;;;;8.18;4.05;;;;;;;8.06;71.49;101623.50;5092396;28;20071;-57
2022/04/20 02:55:14;;;;;;;9.68;3.60;;;;;;;8.08;71.59;101626.88;5088802;28;20482;-57
2022/04/20 02:57:42;;;;;;;8.52;3.25;;;;;;;8.08;71.76;101621.63;5087142;28;20050;-57
2022/04/20 03:00:12;;;;;;;7.28;3.50;;;;;;;8.01;71.40;101634.13;5091780;28;20048;-57
2022/04/20 03:02:42;;;;;;;7.88;3.85;;;;;;;8.00;71.90;101629.81;5092068;28;20052;-57
2022/04/20 03:05:10;;;;;;;10.55;4.05;;;;;;;8.01;71.79;101633.31;5089322;28;20109;-58
2022/04/20 03:07:39;;;;;;;7.03;3.60;;;;;;;7.93;71.27;101634.47;5088121;28;20434;-58
2022/04/20 03:10:08;;;;;;;6.25;3.22;;;;;;;7.91;71.41;101633.69;5091274;28;20052;-57
2022/04/20 03:12:36;;;;;;;9.20;3.55;;;;;;;7.81;72.36;101627.09;5092262;28;20491;-57
2022/04/20 03:15:05;;;;;;;7.47;3.20;;;;;;;7.75;71.74;101630.81;5090093;28;20090;-58
2022/04/20 03:17:33;;;;;;;6.88;3.50;;;;;;;7.70;72.59;101634.56;5088672;28;20517;-58
2022/04/20 03:20:03;;;;;;;6.93;3.33;;;;;;;7.68;72.12;101633.78;5090685;28;20394;-58
2022/04/20 03:22:31;;;;;;;6.30;3.10;;;;;;;7.69;72.19;101635.47;5092143;28;20060;-57
2022/04/20 03:24:59;;;;;;;8.85;4.15;;;;;;;7.71;72.49;101629.25;5091649;28;20097;-58
2022/04/20 03:27:27;;;;;;;6.32;3.30;;;;;;;7.71;71.92;101631.03;5091672;28;20821;-56
2022/04/20 03:29:55;;;;;;;6.88;3.30;;;;;;;7.65;71.99;101637.38;5091748;28;20536;-58
2022/04/20 03:32:23;;;;;;;8.50;3.35;;;;;;;7.64;72.12;101642.66;5088162;28;20123;-57
2022/04/20 03:34:51;;;;;;;7.95;3.45;;;;;;;7.56;71.20;101642.97;5087047;28;20101;-57
2022/04/20 03:37:21;;;;;;;9.73;3.50;;;;;;;7.56;71.11;101648.19;5091497;28;20046;-57
2022/04/20 03:39:49;;;;;;;8.57;3.85;;;;;;;7.43;71.88;101647.81;5091910;28;20093;-58
2022/04/20 03:42:17;;;;;;;7.93;3.72;;;;;;;7.43;72.05;101642.56;5091537;28;20123;-57
2022/04/20 03:44:45;;;;;;;7.40;3.13;;;;;;;7.38;72.31;101657.63;5091743;28;20048;-57
2022/04/20 03:47:13;;;;;;;6.28;3.10;;;;;;;7.40;71.90;101647.94;5091534;28;20048;-59
2022/04/20 03:49:41;;;;;;;7.22;3.10;;;;;;;7.41;71.46;101653.09;5091772;28;20097;-58
2022/04/20 03:52:09;;;;;;;6.82;3.30;;;;;;;7.32;72.63;101655.22;5090139;28;20364;-56
2022/04/20 03:54:39;;;;;;;8.05;3.75;;;;;;;7.25;72.04;101647.63;5088076;28;20051;-58
2022/04/20 03:57:10;;;;;;;5.38;2.72;;;;;;;7.25;72.14;101650.25;5089914;28;20067;-58
2022/04/20 03:59:39;;;;;;;6.32;3.30;;;;;;;7.28;71.86;101644.91;5091231;28;20098;-58
2022/04/20 04:02:07;;;;;;;8.10;3.75;;;;;;;7.27;72.66;101648.41;5088389;28;20048;-57
2022/04/20 04:04:36;;;;;;;7.07;3.05;;;;;;;7.16;73.41;101647.13;5092062;28;20052;-57
2022/04/20 04:07:04;;;;;;;6.90;3.20;;;;;;;7.21;72.36;101645.19;5095029;28;20177;-57
2022/04/20 04:09:32;;;;;;;6.53;2.85;;;;;;;7.20;73.01;101652.19;5093033;28;20051;-58
2022/04/20 04:12:02;;;;;;;5.45;2.95;;;;;;;7.16;73.12;101650.59;5089447;28;20105;-58
2022/04/20 04:14:30;;;;;;;7.20;3.15;;;;;;;7.10;72.63;101648.19;5094512;28;20048;-56
2022/04/20 04:16:58;;;;;;;8.15;3.20;;;;;;;7.13;72.70;101655.09;5094203;28;20056;-50
2022/04/20 04:19:26;;;;;;;6.78;3.17;;;;;;;7.05;73.07;101652.78;5092898;28;20044;-48
2022/04/20 04:21:55;;;;;;;7.95;3.22;;;;;;;7.11;73.24;101663.84;5090389;28;20051;-53
2022/04/20 04:24:35;;;;;;;6.38;3.20;;;;;;;7.06;72.87;101660.56;5092064;28;20105;-53
2022/04/20 04:27:06;;;;;;;10.85;3.83;;;;;;;7.02;73.30;101668.56;5094331;28;20048;-53
2022/04/20 04:29:35;;;;;;;6.07;2.90;;;;;;;6.94;73.85;101668.88;5094864;28;20055;-58
2022/04/20 04:32:03;;;;;;;6.30;3.05;;;;;;;6.91;73.51;101664.59;5093918;28;20107;-58
2022/04/20 04:34:32;;;;;;;6.32;3.00;;;;;;;6.97;73.01;101670.50;5094464;28;20049;-57
2022/04/20 04:37:00;;;;;;;9.48;3.00;;;;;;;7.02;72.80;101663.34;5091231;28;20048;-57
2022/04/20 04:39:29;;;;;;;7.18;2.83;;;;;;;6.93;73.47;101664.53;5089766;28;20076;-58
2022/04/20 04:42:00;;;;;;;9.25;2.75;;;;;;;6.98;73.01;101664.34;5093923;28;20052;-58
2022/04/20 04:44:32;;;;;;;6.55;3.22;;;;;;;6.92;73.05;101668.06;5092422;28;20151;-56
2022/04/20 04:49:46;;;;;;;8.38;3.35;;;;;;;6.99;72.76;101674.75;5092894;28;20052;-57
2022/04/20 04:52:14;;;;;;;7.28;3.00;;;;;;;6.99;72.64;101673.91;5093921;28;20592;-57
2022/04/20 04:54:42;;;;;;;8.00;3.25;;;;;;;6.85;73.37;101682.28;5094149;28;20048;-58
2022/04/20 04:57:12;;;;;;;6.55;2.90;;;;;;;6.90;73.06;101675.13;5093933;28;20072;-57
2022/04/20 04:59:43;;;;;;;6.85;3.05;;;;;;;6.84;74.00;101683.16;5093738;28;20054;-58
2022/04/20 05:02:11;;;;;;;6.22;3.10;;;;;;;6.87;73.64;101680.44;5092386;28;20101;-57
2022/04/20 05:04:40;;;;;;;6.85;3.22;;;;;;;6.85;74.19;101680.50;5094032;28;20055;-57
2022/04/20 05:07:09;;;;;;;7.13;3.60;;;;;;;6.87;73.39;101683.03;5093939;28;20130;-58
2022/04/20 05:09:37;;;;;;;6.70;3.10;;;;;;;6.88;74.11;101679.53;5094051;28;20093;-57
2022/04/20 05:12:06;;;;;;;6.07;2.90;;;;;;;6.81;74.09;101685.91;5093764;28;20130;-57
2022/04/20 05:14:38;;;;;;;7.35;2.88;;;;;;;6.82;73.95;101683.22;5089808;28;20083;-56
2022/04/20 05:17:07;;;;;;;6.57;2.88;;;;;;;6.86;73.80;101684.81;5089899;28;20056;-58
2022/04/20 05:19:35;;;;;;;6.65;3.10;;;;;;;6.90;73.25;101696.88;5093816;28;20047;-57
2022/04/20 05:22:04;;;;;;;7.22;3.08;;;;;;;6.92;72.72;101694.19;5092515;28;20089;-58
2022/04/20 05:24:35;;;;;;;6.72;3.13;;;;;;;6.96;72.83;101697.56;5092025;28;20063;-57
2022/04/20 05:27:04;;;;;;;7.88;3.40;;;;;;;6.98;72.49;101700.97;5088155;28;20043;-57
2022/04/20 05:29:32;;;;;;;8.50;3.47;;;;;;;7.02;72.01;101702.56;5093032;28;20044;-58
2022/04/20 05:32:02;;;;;;;6.00;3.00;;;;;;;7.05;71.77;101702.47;5093526;28;20051;-57
2022/04/20 05:34:33;;;;;;;9.30;3.28;;;;;;;7.06;71.99;101698.94;5093350;28;20471;-50
2022/04/20 05:42:32;;;;;;;6.15;3.05;;;;;;;7.13;71.63;101696.94;5087991;28;20058;-53
2022/04/20 05:45:02;;;;;;;7.32;2.97;;;;;;;7.15;71.32;101693.34;5090167;28;20083;-52
2022/04/20 05:47:30;;;;;;;7.00;3.08;;;;;;;7.21;70.57;101694.88;5093169;28;20518;-53
2022/04/20 05:50:00;;;;;;;5.18;2.67;;;;;;;7.30;70.29;101691.09;5092974;28;20048;-50
2022/04/20 05:52:28;;;;;;;5.82;2.95;;;;;;;7.30;70.75;101699.78;5092749;28;20044;-49
2022/04/20 05:54:57;;;;;;;6.32;2.97;;;;;;;7.38;69.69;101702.13;5090355;28;20085;-47
2022/04/20 05:57:25;;;;;;;7.32;3.40;;;;;;;7.39;69.71;101695.94;5087824;28;20097;-50
2022/04/20 05:59:53;;;;;;;4.82;2.70;;;;;;;7.45;70.18;101699.19;5090298;28;20135;-48
2022/04/20 06:02:21;;;;;;;6.55;2.50;;;;;;;7.54;70.25;101692.75;5091562;28;20040;-51
2022/04/20 06:04:49;;;;;;;7.55;2.85;;;;;;;7.64;69.62;101687.19;5092367;28;20042;-58
2022/04/20 06:07:19;;;;;;;7.93;2.92;;;;;;;7.77;69.27;101686.63;5092792;28;20050;-58
2022/04/20 06:09:47;;;;;;;6.82;3.08;;;;;;;7.82;69.28;101685.59;5091498;28;20096;-54
2022/04/20 06:12:19;;;;;;;7.32;3.10;;;;;;;7.85;68.62;101683.66;5087402;28;20040;-53
2022/04/20 06:14:48;;;;;;;6.68;3.28;;;;;;;7.92;68.03;101687.78;5090939;28;20062;-50
2022/04/20 06:17:16;;;;;;;6.50;2.97;;;;;;;8.05;67.55;101687.28;5092504;28;20396;-57
2022/04/20 06:19:44;;;;;;;8.77;3.00;;;;;;;8.09;68.17;101687.06;5091920;28;20040;-57
2022/04/20 06:22:12;;;;;;;7.68;3.10;;;;;;;8.21;67.82;101690.97;5092242;28;20075;-57
2022/04/20 06:24:41;;;;;;;6.38;2.97;;;;;;;8.30;67.88;101687.09;5091898;28;20048;-56
2022/04/20 06:27:10;;;;;;;7.35;2.58;;;;;;;8.41;67.44;101682.25;5092522;28;20058;-58
2022/04/20 06:29:38;;;;;;;5.85;3.25;;;;;;;8.48;66.38;101685.50;5091000;28;20082;-57
2022/04/20 06:32:07;;;;;;;12.50;3.20;;;;;;;8.57;66.94;101679.84;5092024;28;20044;-57
2022/04/20 06:34:35;;;;;;;8.80;3.40;;;;;;;8.65;67.05;101689.16;5091479;28;20113;-57
2022/04/20 06:37:05;;;;;;;8.52;3.38;;;;;;;8.77;66.09;101691.25;5087824;28;20067;-57
2022/04/20 06:39:33;;;;;;;8.20;3.67;;;;;;;8.80;65.45;101691.94;5090598;28;20097;-57
2022/04/20 06:42:03;;;;;;;8.80;2.92;;;;;;;8.93;65.20;101686.16;5091997;28;20097;-58
2022/04/20 06:44:31;;;;;;;8.00;3.45;;;;;;;9.07;65.03;101677.69;5091901;28;20518;-57
2022/04/20 06:46:59;;;;;;;7.38;3.40;;;;;;;9.18;64.44;101680.66;5091860;28;20090;-57
2022/04/20 06:49:27;;;;;;;8.38;3.38;;;;;;;9.32;64.83;101681.81;5090775;28;20043;-57
2022/04/20 07:00:14;;;;;;;5.55;2.38;;;;;;;9.76;60.71;101681.44;5091999;28;20048;-58
2022/04/20 07:02:42;;;;;;;6.10;2.63;;;;;;;9.82;60.26;101678.53;5092011;28;20504;-58
2022/04/20 07:05:10;;;;;;;5.68;2.90;;;;;;;10.00;60.42;101684.66;5092074;28;20563;-58
2022/04/20 07:07:38;;;;;;;8.85;3.10;;;;;;;10.14;60.68;101686.59;5092328;28;20054;-58
2022/04/20 07:10:25;;;;;;;5.95;2.80;;;;;;;10.18;59.91;101689.94;5090785;28;20048;-59
2022/04/20 07:12:55;;;;;;;6.00;2.90;;;;;;;10.28;60.68;101689.41;5086379;28;20045;-57
2022/04/20 07:15:25;;;;;;;6.65;2.72;;;;;;;10.48;60.03;101691.06;5088975;28;20048;-57
2022/04/20 07:17:53;;;;;;;6.90;2.95;;;;;;;10.68;59.38;101691.78;5091967;28;20046;-58
2022/04/20 07:20:21;;;;;;;7.97;2.83;;;;;;;10.82;58.99;101702.47;5092010;28;20119;-57
2022/04/20 07:22:50;;;;;;;7.10;3.00;;;;;;;10.96;58.88;101695.59;5092248;28;20044;-58
2022/04/20 07:25:18;;;;;;;9.13;3.03;;;;;;;11.14;58.11;101705.16;5091925;28;20044;-58
2022/04/20 07:27:48;;;;;;;5.20;2.55;;;;;;;11.25;56.55;101701.94;5088197;28;20407;-58
2022/04/20 07:30:18;;;;;;;6.32;3.10;;;;;;;11.42;57.79;101703.63;5086568;28;20076;-59
2022/04/20 07:32:48;;;;;;;6.50;3.08;;;;;;;11.55;57.12;101708.22;5090697;28;20059;-58
2022/04/20 07:35:17;;;;;;;6.28;2.60;;;;;;;11.59;55.71;101704.47;5088342;28;20062;-59
2022/04/20 07:37:45;;;;;;;4.57;2.42;;;;;;;11.73;55.45;101706.38;5092801;28;20127;-59
2022/04/20 07:40:14;;;;;;;6.95;3.05;;;;;;;11.91;55.77;101705.31;5095637;28;20075;-59
2022/04/20 07:42:43;;;;;;;6.57;2.78;;;;;;;12.13;54.18;101714.66;5090259;28;20403;-59
2022/04/20 07:45:11;;;;;;;10.45;2.83;;;;;;;12.21;53.57;101707.16;5091187;28;20559;-58
2022/04/20 07:47:41;;;;;;;8.13;3.08;;;;;;;12.22;54.28;101703.56;5094918;28;20040;-58
2022/04/20 07:50:23;;;;;;;5.72;2.65;;;;;;;12.46;53.83;101716.25;5094928;28;20067;-58
2022/04/20 07:52:54;;;;;;;6.00;2.70;;;;;;;12.64;53.76;101709.88;5092564;28;20071;-58
2022/04/20 07:55:23;;;;;;;5.97;2.90;;;;;;;12.96;53.35;101707.06;5091288;28;20079;-58
2022/04/20 07:57:54;;;;;;;8.13;3.00;;;;;;;12.98;52.78;101710.47;5094839;28;20093;-50
2022/04/20 08:00:22;;;;;;;7.75;3.03;;;;;;;13.12;52.63;101706.97;5093201;28;20044;-50
2022/04/20 08:03:07;;;;;;;6.85;2.90;;;;;;;13.29;53.55;101707.72;5092541;28;20055;-48
2022/04/20 08:05:35;;;;;;;6.60;2.78;;;;;;;13.55;51.78;101706.06;5089600;28;20062;-52
2022/04/20 08:08:03;;;;;;;6.82;3.20;;;;;;;13.75;52.16;101712.72;5094055;28;20161;-49
2022/04/20 08:10:31;;;;;;;7.20;3.00;;;;;;;13.78;51.10;101707.22;5095238;28;20093;-50
2022/04/20 08:12:59;;;;;;;6.30;2.85;;;;;;;13.86;48.98;101717.31;5094767;28;20067;-50
2022/04/20 08:15:27;;;;;;;6.30;2.80;;;;;;;13.97;48.83;101716.63;5094978;28;20076;-52
2022/04/20 08:17:57;;;;;;;6.80;3.10;;;;;;;14.13;49.87;101716.47;5095038;28;20437;-53
2022/04/20 08:20:25;;;;;;;5.28;2.78;;;;;;;14.21;48.60;101719.44;5094668;28;20044;-52
2022/04/20 08:22:53;;;;;;;6.32;2.90;;;;;;;14.26;48.46;101714.69;5094911;28;20143;-53
2022/04/20 08:25:21;;;;;;;6.35;2.70;;;;;;;14.50;49.24;101709.53;5094604;28;20055;-52
2022/04/20 08:27:49;;;;;;;5.22;2.80;;;;;;;14.82;48.31;101711.81;5092407;28;20070;-57
2022/04/20 08:30:17;;;;;;;6.68;2.72;;;;;;;15.09;47.66;101708.16;5090983;28;20044;-57
2022/04/20 08:32:45;;;;;;;6.57;3.25;;;;;;;15.19;45.88;101716.31;5093575;28;20048;-57
2022/04/20 08:35:15;;;;;;;7.43;2.97;;;;;;;15.19;45.50;101718.97;5094768;28;20411;-57
2022/04/20 08:37:43;;;;;;;5.65;3.00;;;;;;;15.30;46.41;101708.44;5093359;28;20043;-51
2022/04/20 08:40:13;;;;;;;6.13;2.90;;;;;;;15.59;45.64;101702.84;5090466;28;20056;-51
2022/04/20 08:42:41;;;;;;;5.50;2.78;;;;;;;15.48;44.67;101710.75;5091137;28;20108;-53
2022/04/20 08:45:11;;;;;;;5.57;2.60;;;;;;;15.60;44.97;101715.16;5094488;28;20079;-54
2022/04/20 08:47:40;;;;;;;6.53;2.92;;;;;;;15.79;45.10;101713.78;5093669;28;20787;-58
2022/04/20 08:50:10;;;;;;;7.47;3.20;;;;;;;15.86;44.55;101713.25;5094116;28;20079;-57
2022/04/20 08:52:42;;;;;;;5.88;2.75;;;;;;;15.86;43.68;101715.91;5094142;28;20064;-59
2022/04/20 08:55:12;;;;;;;6.50;2.70;;;;;;;15.86;43.68;101717.72;5091636;28;20052;-57
2022/04/20 08:57:43;;;;;;;5.20;2.70;;;;;;;15.97;43.43;101714.28;5088995;28;20044;-53
2022/04/20 09:00:14;;;;;;;7.22;2.97;;;;;;;16.24;43.36;101719.34;5093547;28;20055;-50
2022/04/20 09:02:42;;;;;;;5.85;3.22;;;;;;;16.08;42.50;101709.00;5093959;28;20470;-52
2022/04/20 09:05:10;;;;;;;5.47;3.00;;;;;;;16.31;43.48;101701.97;5093635;28;20051;-53
2022/04/20 09:07:46;;;;;;;7.10;2.95;;;;;;;16.39;43.02;101709.38;5093682;28;20040;-52
2022/04/20 09:10:16;;;;;;;8.20;2.92;;;;;;;16.25;42.61;101712.19;5093531;28;20044;-49
2022/04/20 09:12:46;;;;;;;6.20;2.88;;;;;;;16.56;42.92;101710.72;5093659;28;20059;-51
2022/04/20 09:15:31;;;;;;;5.93;3.00;;;;;;;16.66;41.96;101709.06;5093513;28;20040;-49
2022/04/20 09:18:02;;;;;;;5.63;2.97;;;;;;;16.54;42.17;101702.03;5092238;28;20047;-51
2022/04/20 09:20:32;;;;;;;5.88;2.70;;;;;;;16.73;41.69;101704.94;5093188;28;20044;-52
2022/04/20 09:23:04;;;;;;;6.80;2.63;;;;;;;16.92;41.66;101708.88;5093351;28;20036;-49
2022/04/20 09:25:34;;;;;;;5.95;2.50;;;;;;;17.08;40.78;101707.66;5093252;28;20394;-51
2022/04/20 09:28:03;;;;;;;5.20;2.88;;;;;;;16.94;41.07;101712.22;5093517;28;20046;-52
2022/04/20 09:30:37;;;;;;;6.25;2.53;;;;;;;16.88;40.00;101697.59;5090866;28;20071;-51
2022/04/20 09:33:07;;;;;;;7.93;2.85;;;;;;;17.16;40.23;101695.44;5089120;28;20052;-51
2022/04/20 09:35:43;;;;;;;5.57;2.80;;;;;;;17.46;39.57;101685.13;5092645;28;20047;-51
2022/04/20 09:38:13;;;;;;;4.97;2.65;;;;;;;17.53;39.52;101683.63;5092870;28;20067;-52
2022/04/20 09:40:42;;;;;;;6.13;3.00;;;;;;;17.73;39.01;101684.66;5093039;28;20044;-50
2022/04/20 09:43:15;;;;;;;6.32;2.80;;;;;;;17.78;38.49;101689.59;5092732;28;20055;-50
2022/04/20 09:45:44;;;;;;;6.63;2.90;;;;;;;17.93;38.40;101682.19;5092960;28;20101;-52
2022/04/20 09:51:09;;;;;;;5.38;3.00;;;;;;;17.79;38.33;101676.16;5090317;28;20552;-48
2022/04/20 09:53:42;;;;;;;7.72;2.83;;;;;;;18.07;37.90;101679.25;5090454;28;20411;-53
2022/04/20 09:56:18;;;;;;;5.07;2.67;;;;;;;18.13;38.45;101683.19;5087552;28;20438;-54
2022/04/20 09:58:47;;;;;;;6.28;2.80;;;;;;;18.44;37.55;101681.44;5092205;28;20060;-54
2022/04/20 10:01:27;;;;;;;5.57;3.28;;;;;;;18.70;36.63;101675.69;5091627;28;20040;-53
2022/04/20 10:03:56;;;;;;;6.43;3.35;;;;;;;18.90;36.67;101674.00;5092529;28;20170;-56
2022/04/20 10:06:24;;;;;;;6.20;2.55;;;;;;;19.37;36.02;101668.06;5092565;28;20068;-58
2022/04/20 10:08:53;;;;;;;6.50;2.95;;;;;;;19.49;35.80;101666.13;5092160;28;20387;-58
2022/04/20 10:11:23;;;;;;;7.45;3.22;;;;;;;19.37;35.96;101662.75;5086527;28;20048;-59
2022/04/20 10:16:39;;;;;;;6.28;2.60;;;;;;;19.49;35.01;101666.97;5092312;28;20499;-58
2022/04/20 10:19:09;;;;;;;5.45;2.55;;;;;;;19.71;34.40;101665.03;5092174;28;20453;-55
2022/04/20 10:21:44;;;;;;;6.00;2.40;;;;;;;19.74;34.02;101648.72;5091614;28;20052;-54
2022/04/20 10:24:18;;;;;;;5.82;2.38;;;;;;;19.77;33.68;101653.81;5088820;28;20051;-58
2022/04/20 10:26:48;;;;;;;6.32;2.83;;;;;;;20.08;34.08;101650.97;5090542;28;20036;-53
2022/04/20 10:29:23;;;;;;;5.97;2.50;;;;;;;19.88;32.58;101648.34;5091858;28;20048;-54
2022/04/20 10:31:59;;;;;;;8.15;3.00;;;;;;;19.90;33.29;101643.69;5091415;28;20036;-54
2022/04/20 10:34:27;;;;;;;5.38;2.90;;;;;;;19.90;33.60;101641.00;5090431;28;20529;-54
2022/04/20 10:37:00;;;;;;;5.50;2.60;;;;;;;20.06;31.87;101640.44;5087995;28;20052;-54
2022/04/20 10:39:36;;;;;;;5.38;2.50;;;;;;;20.01;32.82;101629.34;5090610;28;20495;-54
2022/04/20 10:42:22;;;;;;;5.80;2.80;;;;;;;19.98;33.12;101637.66;5087204;28;20060;-55
2022/04/20 10:45:00;;;;;;;5.95;2.80;;;;;;;20.30;32.09;101630.28;5089035;28;20054;-51
2022/04/20 10:47:30;;;;;;;5.15;2.50;;;;;;;20.48;32.45;101619.66;5092078;28;20113;-52
2022/04/20 10:50:16;;;;;;;4.63;2.47;;;;;;;20.32;32.03;101613.13;5088988;28;20081;-53
2022/04/20 10:52:50;;;;;;;4.35;2.28;;;;;;;20.41;32.92;101612.25;5087857;28;20051;-53
2022/04/20 10:55:24;;;;;;;5.35;2.33;;;;;;;20.14;32.39;101604.16;5091172;28;20050;-53
2022/04/20 10:57:55;;;;;;;7.35;2.67;;;;;;;20.32;32.37;101610.44;5091488;28;20047;-52
2022/04/20 11:00:33;;;;;;;5.90;2.83;;;;;;;20.57;31.38;101613.44;5091651;28;20044;-52
2022/04/20 11:03:06;;;;;;;7.57;2.53;;;;;;;20.48;31.90;101609.84;5092132;28;20055;-54
2022/04/20 11:05:50;;;;;;;6.75;2.90;;;;;;;20.82;31.96;101611.97;5091628;28;20499;-52
2022/04/20 11:08:18;;;;;;;6.13;2.92;;;;;;;21.16;31.72;101613.16;5091559;28;20103;-55
2022/04/20 11:19:20;;;;;;;6.20;2.58;;;;;;;21.56;29.40;101586.00;5095868;28;20062;-55
2022/04/20 11:21:56;;;;;;;5.25;2.25;;;;;;;21.62;29.90;101587.22;5091681;28;20039;-58
2022/04/20 11:24:28;;;;;;;5.90;2.33;;;;;;;21.81;29.83;101585.34;5092775;28;20057;-57
2022/04/20 11:26:59;;;;;;;6.15;2.88;;;;;;;21.59;30.63;101593.72;5095416;28;20044;-54
2022/04/20 11:29:30;;;;;;;6.40;2.55;;;;;;;21.79;30.93;101577.50;5095573;28;20058;-55
2022/04/20 11:31:59;;;;;;;5.68;2.70;;;;;;;21.40;30.90;101561.75;5091212;28;20102;-54
2022/04/20 11:34:31;;;;;;;4.63;2.47;;;;;;;21.51;30.58;101563.34;5092415;28;20085;-53
2022/04/20 11:37:01;;;;;;;5.68;2.85;;;;;;;21.51;30.52;101563.34;5095783;28;20048;-54
2022/04/20 11:39:30;;;;;;;7.32;2.88;;;;;;;21.71;30.96;101572.91;5095603;28;20052;-58
2022/04/20 11:42:01;;;;;;;4.93;2.95;;;;;;;21.34;30.90;101571.22;5095658;28;20094;-58
2022/04/20 11:44:31;;;;;;;7.30;2.58;;;;;;;21.22;31.06;101570.59;5095314;28;20055;-58
2022/04/20 11:47:02;;;;;;;5.88;2.63;;;;;;;21.68;30.21;101575.03;5095778;28;20044;-58
2022/04/20 11:49:32;;;;;;;4.63;2.75;;;;;;;21.44;30.56;101571.97;5095425;28;20055;-59
2022/04/20 11:52:03;;;;;;;7.55;3.22;;;;;;;21.27;30.70;101570.16;5080634;28;20057;-53
2022/04/20 11:54:32;;;;;;;6.18;2.63;;;;;;;21.78;30.94;101562.41;5062435;28;20053;-55
2022/04/20 11:57:03;;;;;;;4.70;2.50;;;;;;;21.78;29.98;101571.28;5064571;28;20052;-58
2022/04/20 11:59:32;;;;;;;7.43;2.75;;;;;;;22.12;30.41;101565.13;5054690;28;20057;-58
2022/04/20 12:02:00;;;;;;;6.57;2.95;;;;;;;21.23;30.44;101563.44;5055099;28;20037;-58
2022/04/20 12:04:29;;;;;;;8.18;2.90;;;;;;;22.21;30.76;101566.03;5054628;28;20049;-55
2022/04/20 12:06:59;;;;;;;5.20;2.80;;;;;;;21.88;30.00;101560.50;5054666;28;20102;-58
2022/04/20 12:09:30;;;;;;;5.10;2.70;;;;;;;22.11;30.35;101555.44;5054783;28;20045;-58
2022/04/20 12:12:03;;;;;;;5.43;2.80;;;;;;;22.36;29.79;101547.56;5053298;28;20051;-58
2022/04/20 12:14:32;;;;;;;6.70;2.90;;;;;;;22.34;29.46;101544.19;5053445;28;20095;-58